Goryachiy klyuch, Russia
Current Conditions -  °F | °C
As of 10:00 PM on Tuesday 27 Jan 2015 (Local Time) from URKK Reporting Station
Haze Haze  
Wind Chill: 30°   Ceiling: Unl
Heat Index: 36°   Visibility: 3mi
Dew Point: 36°   Wind: 7mph
Humidity: 100%   Direction: 60°ENE
Pressure: 30.06"   Gusts: NA
Location:  44.63°N, 39.13°E
Report Text: URKK 271900Z 06003MPS 5000 BR SKC 02/02 Q1018 NOSIG RMK QFE760SC070
Loading
Personal Weather Stations






























Interactive Weather Map New forecast layout! Learn more

10-Day Weather Forecast

Advertisements
Track Severe Weather on mobile